National Weather Service Raw Text Product

Displaying AFOS PIL: TAFOTM Received: 2018-12-06 11:29 UTC


309 
FTUS43 KDMX 061129
TAFOTM
TAF
KOTM 061129Z 0612/0712 34012KT P6SM OVC015
     FM061700 34015KT P6SM SCT020
     FM070000 33007KT P6SM SKC=